Time;durP1;ratioP1;P1;durP2;ratioP2;P2;SDS_P1;SDS_P2;PMS_P1;PMS_P2;Temp;Humidity;BMP_temperature;BMP_pressure;BME280_temperature;BME280_humidity;BME280_pressure;Samples;Min_cycle;Max_cycle;Signal;HPM_P1;HPM_P2
2022/07/05 19:29:54;;;;;;;4.10;3.03;;;;;;;17.39;100.00;98942.16;5063508;27;20501;-62
2022/07/05 19:32:40;;;;;;;3.97;2.80;;;;;;;17.43;100.00;98941.72;5018708;28;20045;-63
2022/07/05 19:35:24;;;;;;;4.45;3.10;;;;;;;17.63;100.00;98944.28;5038140;28;20112;-64
2022/07/05 19:38:13;;;;;;;3.53;2.40;;;;;;;17.85;100.00;98940.41;5037435;28;20056;-62
2022/07/05 19:40:57;;;;;;;3.00;2.70;;;;;;;18.02;100.00;98945.88;5044972;28;20041;-62
2022/07/05 19:43:45;;;;;;;4.13;2.85;;;;;;;18.08;100.00;98950.59;5046203;28;20056;-62
2022/07/05 19:46:29;;;;;;;4.00;2.78;;;;;;;18.00;100.00;98950.53;5045657;28;20485;-62
2022/07/05 19:49:18;;;;;;;4.43;2.97;;;;;;;18.07;100.00;98942.78;5048514;28;20579;-62
2022/07/05 19:52:03;;;;;;;4.65;2.60;;;;;;;17.90;100.00;98933.84;5042547;28;20069;-62
2022/07/05 19:54:51;;;;;;;4.57;2.80;;;;;;;17.64;100.00;98927.44;5039925;28;20053;-63
2022/07/05 19:57:36;;;;;;;3.85;2.78;;;;;;;18.07;100.00;98926.88;5038598;28;20049;-61
2022/07/05 20:00:20;;;;;;;4.35;2.90;;;;;;;17.83;100.00;98921.19;5046519;28;20410;-62
2022/07/05 20:03:05;;;;;;;3.10;2.65;;;;;;;17.93;100.00;98917.63;5043875;28;20434;-62
2022/07/05 20:05:50;;;;;;;4.78;2.50;;;;;;;17.47;100.00;98916.63;5032880;28;20050;-63
2022/07/05 20:08:35;;;;;;;2.75;2.30;;;;;;;17.53;100.00;98909.91;5042037;28;20122;-62
2022/07/05 20:11:20;;;;;;;2.60;2.05;;;;;;;17.42;100.00;98913.56;5042322;28;20049;-61
2022/07/05 20:14:05;;;;;;;2.40;2.10;;;;;;;17.34;100.00;98918.78;5021343;28;20041;-61
2022/07/05 20:16:50;;;;;;;3.17;2.30;;;;;;;17.29;100.00;98923.66;5042735;28;20400;-63
2022/07/05 20:19:36;;;;;;;3.50;2.00;;;;;;;17.36;100.00;98927.41;5043603;28;20056;-63
2022/07/05 20:22:20;;;;;;;2.50;2.15;;;;;;;17.25;100.00;98917.81;5043700;28;20496;-63
2022/07/05 20:25:05;;;;;;;2.53;2.03;;;;;;;17.18;100.00;98916.75;5046568;28;20412;-62
2022/07/05 20:27:51;;;;;;;2.78;2.13;;;;;;;17.20;100.00;98928.03;5040592;28;20049;-62
2022/07/05 20:30:38;;;;;;;2.30;1.90;;;;;;;17.38;100.00;98929.91;5035208;28;20057;-62
2022/07/05 20:33:23;;;;;;;2.55;2.00;;;;;;;17.43;100.00;98935.59;5029430;28;20046;-62
2022/07/05 20:36:08;;;;;;;2.00;1.70;;;;;;;17.26;100.00;98938.03;5032782;28;20401;-62
2022/07/05 20:38:53;;;;;;;2.53;2.15;;;;;;;17.07;100.00;98934.41;5032533;28;20042;-63
2022/07/05 20:41:37;;;;;;;3.08;1.90;;;;;;;17.08;100.00;98949.38;5040633;28;20477;-63
2022/07/05 20:44:23;;;;;;;4.57;1.92;;;;;;;17.11;100.00;98938.50;5044455;28;20045;-63
2022/07/05 20:47:07;;;;;;;2.40;1.90;;;;;;;17.26;100.00;98945.13;5027172;28;20049;-63
2022/07/05 20:49:52;;;;;;;2.78;1.77;;;;;;;17.46;100.00;98943.25;5032331;28;20034;-62
2022/07/05 20:52:38;;;;;;;5.45;2.10;;;;;;;17.40;98.58;98954.44;5029191;28;20049;-65
2022/07/05 20:55:23;;;;;;;2.10;1.67;;;;;;;17.07;100.00;98939.72;5021210;28;20548;-64
2022/07/05 20:58:07;;;;;;;3.38;1.85;;;;;;;16.89;100.00;98955.50;5026071;28;20042;-65
2022/07/05 21:00:52;;;;;;;2.25;1.67;;;;;;;16.72;100.00;98946.47;5020910;28;20049;-64
2022/07/05 21:03:37;;;;;;;3.42;1.75;;;;;;;16.68;100.00;98945.09;5017586;28;20172;-65
2022/07/05 21:06:22;;;;;;;4.68;2.20;;;;;;;16.60;100.00;98943.13;5027421;28;20046;-66
2022/07/05 21:09:06;;;;;;;2.15;1.80;;;;;;;16.42;100.00;98921.84;5017214;28;20114;-65
2022/07/05 21:11:51;;;;;;;2.00;1.80;;;;;;;16.48;100.00;98932.69;5029575;28;20088;-64
2022/07/05 21:14:36;;;;;;;3.67;1.70;;;;;;;16.44;100.00;98926.03;5036722;28;20037;-64
2022/07/05 21:17:21;;;;;;;3.63;2.03;;;;;;;16.51;100.00;98928.94;5019924;28;20151;-63
2022/07/05 21:20:06;;;;;;;2.63;1.80;;;;;;;16.41;100.00;98936.88;5025833;28;20125;-64
2022/07/05 21:22:51;;;;;;;2.28;1.83;;;;;;;16.27;100.00;98940.78;5024542;28;20045;-65
2022/07/05 21:25:36;;;;;;;4.47;1.90;;;;;;;16.29;100.00;98944.09;5032938;28;20091;-64
2022/07/05 21:28:21;;;;;;;4.65;1.90;;;;;;;16.27;100.00;98950.50;5028938;28;20464;-65
2022/07/05 21:31:05;;;;;;;3.25;2.00;;;;;;;16.17;100.00;98953.13;5025359;28;20041;-66
2022/07/05 21:33:51;;;;;;;4.07;1.95;;;;;;;16.17;100.00;98950.50;5013059;28;20049;-65
2022/07/05 21:36:35;;;;;;;2.22;1.77;;;;;;;16.11;100.00;98950.06;5012719;28;20049;-65
2022/07/05 21:39:21;;;;;;;2.65;1.60;;;;;;;16.10;100.00;98944.91;5025865;28;20566;-65
2022/07/05 21:42:06;;;;;;;2.92;1.85;;;;;;;16.12;100.00;98946.44;5011734;28;20498;-65
2022/07/05 21:44:50;;;;;;;3.63;1.67;;;;;;;16.31;100.00;98944.81;5015910;28;20353;-65
2022/07/05 21:47:35;;;;;;;2.03;1.77;;;;;;;16.17;100.00;98943.41;5032954;28;20102;-64
2022/07/05 21:50:20;;;;;;;3.08;1.50;;;;;;;16.37;100.00;98944.25;5031149;28;20088;-64
2022/07/05 21:53:04;;;;;;;4.10;1.73;;;;;;;16.44;99.17;98941.03;5031460;28;20481;-65
2022/07/05 21:55:49;;;;;;;1.88;1.40;;;;;;;16.44;98.04;98952.47;5021272;28;20869;-64
2022/07/05 22:04:24;;;;;;;1.65;1.27;;;;;;;16.45;95.94;98948.81;5038316;28;20199;-64
2022/07/05 22:04:43;;;;;;;2.88;1.58;;;;;;;16.41;95.52;98968.59;5030281;28;20073;-65
2022/07/05 22:07:28;;;;;;;2.22;1.45;;;;;;;16.36;94.89;98962.88;5034018;28;20046;-64
2022/07/05 22:10:13;;;;;;;4.53;1.50;;;;;;;16.27;94.32;98969.84;5032083;28;20455;-64
2022/07/05 22:12:57;;;;;;;1.75;1.20;;;;;;;16.51;94.17;98971.25;5039429;28;20401;-65
2022/07/05 22:15:42;;;;;;;5.38;1.35;;;;;;;16.47;94.01;98959.25;5024939;28;20051;-65
2022/07/05 22:18:27;;;;;;;2.25;1.60;;;;;;;16.41;94.71;98967.75;5049276;28;20056;-63
2022/07/05 22:21:11;;;;;;;4.18;1.38;;;;;;;16.33;94.45;98971.94;5030535;28;20041;-63
2022/07/05 22:23:56;;;;;;;2.70;1.33;;;;;;;16.55;92.07;98982.38;5025385;28;20037;-65
2022/07/05 22:26:41;;;;;;;2.03;1.20;;;;;;;16.35;92.57;98980.53;5032236;28;20056;-63
2022/07/05 22:29:26;;;;;;;5.68;1.30;;;;;;;16.17;93.33;98976.91;5024767;28;20064;-63
2022/07/05 22:32:10;;;;;;;2.15;1.50;;;;;;;16.43;98.54;98961.38;5026419;28;20144;-64
2022/07/05 22:34:55;;;;;;;1.63;1.17;;;;;;;16.37;89.28;98969.84;5025939;28;20104;-63
2022/07/05 22:37:40;;;;;;;1.48;1.08;;;;;;;16.07;90.04;98980.38;5048628;28;20056;-63
2022/07/05 22:40:25;;;;;;;6.72;1.70;;;;;;;16.12;88.41;98970.22;5041743;28;20072;-64
2022/07/05 22:43:10;;;;;;;1.63;1.10;;;;;;;16.16;90.80;98972.63;5018710;28;20509;-63
2022/07/05 22:45:54;;;;;;;3.08;1.05;;;;;;;16.10;86.66;98966.91;5044934;28;20064;-64
2022/07/05 22:48:39;;;;;;;2.85;1.23;;;;;;;16.08;86.67;98974.13;5023767;28;20042;-63
2022/07/05 22:51:24;;;;;;;1.40;1.13;;;;;;;15.98;87.60;98974.09;5026603;28;20037;-64
2022/07/05 22:54:09;;;;;;;2.78;1.20;;;;;;;15.94;87.14;98971.81;5027726;28;20038;-64
2022/07/05 22:56:54;;;;;;;1.48;1.30;;;;;;;16.08;88.72;98968.81;5022775;28;20102;-64
2022/07/05 22:59:38;;;;;;;1.50;1.10;;;;;;;16.03;85.97;98972.88;5036165;28;20124;-64
2022/07/05 23:02:23;;;;;;;1.40;1.10;;;;;;;15.86;87.65;98960.13;5021232;28;20073;-65
2022/07/05 23:05:08;;;;;;;2.05;1.15;;;;;;;15.86;89.81;98961.94;5029789;28;20041;-64
2022/07/05 23:07:53;;;;;;;1.95;1.25;;;;;;;15.80;88.97;98968.56;5029731;28;20049;-64
2022/07/05 23:10:38;;;;;;;1.92;1.10;;;;;;;15.72;91.13;98968.41;5038379;28;20045;-63
2022/07/05 23:13:22;;;;;;;1.90;1.35;;;;;;;15.65;91.83;98970.78;5035626;28;20390;-64
2022/07/05 23:16:07;;;;;;;3.53;1.35;;;;;;;15.72;91.63;98971.06;5016195;28;20061;-65
2022/07/05 23:18:51;;;;;;;7.32;2.00;;;;;;;15.66;92.66;98974.22;5041396;28;20382;-64
2022/07/05 23:21:36;;;;;;;2.63;1.77;;;;;;;15.62;94.82;98971.00;5031556;28;20041;-64
2022/07/05 23:27:28;;;;;;;4.45;1.70;;;;;;;15.56;96.73;98976.81;5038536;28;20444;-64
2022/07/05 23:30:13;;;;;;;2.63;1.63;;;;;;;15.36;100.00;98982.00;5038584;28;20041;-64
2022/07/05 23:32:57;;;;;;;4.55;1.77;;;;;;;15.17;100.00;98983.59;5026673;28;20444;-64
2022/07/05 23:35:42;;;;;;;3.70;1.98;;;;;;;15.09;100.00;98975.47;5039216;28;20759;-64
2022/07/05 23:38:27;;;;;;;1.80;1.30;;;;;;;15.26;99.44;98976.69;5028746;28;20048;-64
2022/07/05 23:41:11;;;;;;;3.35;1.83;;;;;;;15.33;99.87;98983.13;5027901;28;20074;-65
2022/07/05 23:43:56;;;;;;;3.10;2.03;;;;;;;15.32;100.00;98989.38;5026810;28;20089;-65
2022/07/05 23:46:41;;;;;;;3.35;1.70;;;;;;;15.26;100.00;98984.59;5021402;28;20046;-65
2022/07/05 23:49:25;;;;;;;2.55;1.77;;;;;;;15.41;100.00;98987.75;5025824;28;20180;-65
2022/07/05 23:52:10;;;;;;;2.63;1.98;;;;;;;15.35;100.00;98993.53;5017193;28;20073;-64
2022/07/05 23:54:55;;;;;;;5.25;1.90;;;;;;;15.35;100.00;98998.81;5033266;28;20083;-64
2022/07/05 23:57:40;;;;;;;4.25;1.65;;;;;;;15.38;100.00;98993.28;5015151;28;20396;-64
